createdAt,value
2019-03-06T00:00:28.948Z,7.15
2019-03-06T00:01:28.995Z,7.15
2019-03-06T00:02:29.005Z,7.14
2019-03-06T00:03:28.965Z,7.16
2019-03-06T00:04:28.962Z,7.15
2019-03-06T00:05:29.082Z,7.14
2019-03-06T00:06:28.929Z,7.13
2019-03-06T00:07:28.930Z,7.11
2019-03-06T00:08:28.932Z,7.12
2019-03-06T00:09:28.985Z,7.13
2019-03-06T00:10:28.990Z,7.1
2019-03-06T00:11:28.908Z,7.13
2019-03-06T00:12:28.908Z,7.12
2019-03-06T00:13:28.927Z,7.13
2019-03-06T00:14:29.800Z,7.13
2019-03-06T00:15:28.997Z,7.1
2019-03-06T00:16:28.932Z,7.09
2019-03-06T00:17:29.067Z,7.11
2019-03-06T00:18:29.143Z,7.09
2019-03-06T00:19:28.936Z,7.09
2019-03-06T00:20:28.928Z,7.08
2019-03-06T00:21:28.938Z,7.09
2019-03-06T00:22:28.942Z,7.1
2019-03-06T00:23:30.513Z,7.08
2019-03-06T00:24:28.914Z,7.07
2019-03-06T00:25:29.095Z,7.08
2019-03-06T00:26:28.921Z,7.08
2019-03-06T00:27:28.902Z,7.07
2019-03-06T00:28:28.917Z,7.04
2019-03-06T00:29:28.940Z,7.06
2019-03-06T00:30:28.922Z,7.08
2019-03-06T00:31:28.938Z,7.05
2019-03-06T00:32:30.576Z,7.07
2019-03-06T00:33:28.943Z,7.05
2019-03-06T00:34:28.954Z,7.06
2019-03-06T00:35:28.935Z,7.06
2019-03-06T00:36:28.912Z,7.06
2019-03-06T00:37:28.893Z,7.05
2019-03-06T00:38:28.908Z,7.04
2019-03-06T00:39:28.961Z,7.06
2019-03-06T00:40:28.899Z,7.04
2019-03-06T00:41:30.840Z,7.07
2019-03-06T00:42:28.894Z,7.06
2019-03-06T00:43:28.955Z,7.04
2019-03-06T00:44:28.953Z,7.05
2019-03-06T00:45:28.960Z,7.03
2019-03-06T00:46:28.966Z,7.02
2019-03-06T00:47:28.912Z,7.02
2019-03-06T00:48:28.910Z,7.01
2019-03-06T00:49:28.854Z,7.01
2019-03-06T00:50:28.887Z,7.02
2019-03-06T00:51:28.906Z,7.02
2019-03-06T00:52:28.906Z,7.03
2019-03-06T00:53:28.910Z,7.02
2019-03-06T00:54:28.874Z,7.03
2019-03-06T00:55:28.886Z,7.02
2019-03-06T00:56:28.913Z,7.01
2019-03-06T00:57:28.880Z,7
2019-03-06T00:58:29.669Z,6.96
2019-03-06T00:59:28.863Z,6.96
2019-03-06T01:00:28.865Z,6.94
2019-03-06T01:01:28.874Z,6.94
2019-03-06T01:02:28.876Z,6.94
2019-03-06T01:03:28.920Z,6.92
2019-03-06T01:04:28.876Z,6.93
2019-03-06T01:05:28.958Z,6.93
2019-03-06T01:06:28.875Z,6.93
2019-03-06T01:07:30.191Z,6.94
2019-03-06T01:08:28.879Z,6.94
2019-03-06T01:09:28.863Z,6.93
2019-03-06T01:10:28.864Z,6.92
2019-03-06T01:11:28.891Z,6.92
2019-03-06T01:12:28.869Z,6.93
2019-03-06T01:13:28.902Z,6.91
2019-03-06T01:14:28.860Z,6.94
2019-03-06T01:15:28.876Z,6.92
2019-03-06T01:16:30.488Z,6.91
2019-03-06T01:17:28.880Z,6.9
2019-03-06T01:18:28.850Z,6.89
2019-03-06T01:19:28.851Z,6.89
2019-03-06T01:20:28.824Z,6.88
2019-03-06T01:21:28.829Z,6.88
2019-03-06T01:22:28.833Z,6.88
2019-03-06T01:23:28.819Z,6.85
2019-03-06T01:24:29.231Z,6.84
2019-03-06T01:25:31.027Z,6.84
2019-03-06T01:26:28.912Z,6.83
2019-03-06T01:27:28.844Z,6.83
2019-03-06T01:28:28.817Z,6.82
2019-03-06T01:29:28.844Z,6.82
2019-03-06T01:30:28.891Z,6.79
2019-03-06T01:31:28.832Z,6.78
2019-03-06T01:32:28.830Z,6.78
2019-03-06T01:33:28.807Z,6.79
2019-03-06T01:34:30.576Z,6.78
2019-03-06T01:35:28.852Z,6.78
2019-03-06T01:36:28.797Z,6.77
2019-03-06T01:37:28.812Z,6.76
2019-03-06T01:38:28.793Z,6.76
2019-03-06T01:39:28.834Z,6.76
2019-03-06T01:40:28.806Z,6.72
2019-03-06T01:41:28.848Z,6.76
2019-03-06T01:42:31.515Z,6.75
2019-03-06T01:43:31.047Z,6.75
2019-03-06T01:44:28.808Z,6.72
2019-03-06T01:45:28.844Z,6.73
2019-03-06T01:46:28.925Z,6.73
2019-03-06T01:47:28.896Z,6.76
2019-03-06T01:48:28.828Z,6.75
2019-03-06T01:49:28.799Z,6.75
2019-03-06T01:50:28.820Z,6.75
2019-03-06T01:51:28.776Z,6.73
2019-03-06T01:52:28.774Z,6.73
2019-03-06T01:53:28.830Z,6.73
2019-03-06T01:54:28.774Z,6.76
2019-03-06T01:55:28.945Z,6.75
2019-03-06T01:56:28.828Z,6.71
2019-03-06T01:57:28.795Z,6.71
2019-03-06T01:58:28.903Z,6.72
2019-03-06T01:59:28.862Z,6.72
2019-03-06T02:00:29.346Z,6.73
2019-03-06T02:01:28.820Z,6.72
2019-03-06T02:02:28.796Z,6.7
2019-03-06T02:03:28.776Z,6.72
2019-03-06T02:04:28.785Z,6.73
2019-03-06T02:05:28.837Z,6.7
2019-03-06T02:06:28.808Z,6.71
2019-03-06T02:07:28.798Z,6.69
2019-03-06T02:08:28.806Z,6.7
2019-03-06T02:09:30.704Z,6.71
2019-03-06T02:10:28.796Z,6.69
2019-03-06T02:11:28.768Z,6.69
2019-03-06T02:12:28.831Z,6.67
2019-03-06T02:13:28.755Z,6.66
2019-03-06T02:14:28.783Z,6.64
2019-03-06T02:15:28.785Z,6.63
2019-03-06T02:16:28.809Z,6.65
2019-03-06T02:17:28.864Z,6.64
2019-03-06T02:18:30.765Z,6.63
2019-03-06T02:19:28.750Z,6.61
2019-03-06T02:20:28.765Z,6.59
2019-03-06T02:21:28.754Z,6.6
2019-03-06T02:22:28.751Z,6.59
2019-03-06T02:23:28.782Z,6.59
2019-03-06T02:24:28.737Z,6.59
2019-03-06T02:25:28.739Z,6.58
2019-03-06T02:26:28.723Z,6.57
2019-03-06T02:27:30.415Z,6.58
2019-03-06T02:28:28.723Z,6.56
2019-03-06T02:29:28.759Z,6.56
2019-03-06T02:30:28.869Z,6.56
2019-03-06T02:31:28.882Z,6.56
2019-03-06T02:32:28.787Z,6.54
2019-03-06T02:33:28.758Z,6.56
2019-03-06T02:34:28.786Z,6.53
2019-03-06T02:35:29.676Z,6.53
2019-03-06T02:36:28.827Z,6.52
2019-03-06T02:37:28.747Z,6.52
2019-03-06T02:38:28.813Z,6.51
2019-03-06T02:39:28.780Z,6.5
2019-03-06T02:40:28.850Z,6.46
2019-03-06T02:41:28.743Z,6.46
2019-03-06T02:42:28.753Z,6.43
2019-03-06T02:43:28.782Z,6.42
2019-03-06T02:44:30.527Z,6.42
2019-03-06T02:45:28.739Z,6.41
2019-03-06T02:46:28.868Z,6.41
2019-03-06T02:47:28.754Z,6.4
2019-03-06T02:48:28.829Z,6.39
2019-03-06T02:49:28.770Z,6.38
2019-03-06T02:50:28.743Z,6.39
2019-03-06T02:51:28.781Z,6.4
2019-03-06T02:52:30.070Z,6.36
2019-03-06T02:53:28.877Z,6.37
2019-03-06T02:54:28.744Z,6.38
2019-03-06T02:55:28.735Z,6.35
2019-03-06T02:56:28.770Z,6.36
2019-03-06T02:57:28.695Z,6.35
2019-03-06T02:58:28.788Z,6.37
2019-03-06T02:59:28.765Z,6.33
2019-03-06T03:00:28.793Z,6.34
2019-03-06T03:01:30.846Z,6.32
2019-03-06T03:02:28.758Z,6.33
2019-03-06T03:03:28.697Z,6.31
2019-03-06T03:04:28.696Z,6.29
2019-03-06T03:05:28.729Z,6.28
2019-03-06T03:06:28.728Z,6.29
2019-03-06T03:07:28.701Z,6.28
2019-03-06T03:08:28.740Z,6.31
2019-03-06T03:09:28.866Z,6.3
2019-03-06T03:10:28.762Z,6.26
2019-03-06T03:11:28.768Z,6.26
2019-03-06T03:12:28.700Z,6.26
2019-03-06T03:13:28.715Z,6.21
2019-03-06T03:14:29.045Z,6.2
2019-03-06T03:15:28.715Z,6.2
2019-03-06T03:16:28.761Z,6.21
2019-03-06T03:17:28.700Z,6.17
2019-03-06T03:18:30.113Z,6.19
2019-03-06T03:19:28.727Z,6.17
2019-03-06T03:20:28.704Z,6.18
2019-03-06T03:21:28.706Z,6.2
2019-03-06T03:22:28.690Z,6.2
2019-03-06T03:23:28.739Z,6.21
2019-03-06T03:24:28.716Z,6.19
2019-03-06T03:25:28.741Z,6.21
2019-03-06T03:26:28.689Z,6.21
2019-03-06T03:27:28.741Z,6.21
2019-03-06T03:28:28.664Z,6.24
2019-03-06T03:29:28.677Z,6.21
2019-03-06T03:30:28.800Z,6.2
2019-03-06T03:31:28.743Z,6.2
2019-03-06T03:32:28.689Z,6.21
2019-03-06T03:33:28.758Z,6.18
2019-03-06T03:34:28.764Z,6.16
2019-03-06T03:35:31.428Z,6.19
2019-03-06T03:36:28.653Z,6.19
2019-03-06T03:37:28.696Z,6.19
2019-03-06T03:38:28.703Z,6.19
2019-03-06T03:39:28.688Z,6.16
2019-03-06T03:40:28.704Z,6.16
2019-03-06T03:41:28.647Z,6.16
2019-03-06T03:42:28.691Z,6.16
2019-03-06T03:43:28.675Z,6.14
2019-03-06T03:44:28.679Z,6.13
2019-03-06T03:45:28.690Z,6.13
2019-03-06T03:46:28.648Z,6.14
2019-03-06T03:47:28.671Z,6.14
2019-03-06T03:48:28.688Z,6.13
2019-03-06T03:49:28.711Z,6.13
2019-03-06T03:50:28.649Z,6.12
2019-03-06T03:51:28.683Z,6.13
2019-03-06T03:52:30.017Z,6.14
2019-03-06T03:53:28.693Z,6.16
2019-03-06T03:54:28.666Z,6.13
2019-03-06T03:55:28.653Z,6.14
2019-03-06T03:56:28.673Z,6.12
2019-03-06T03:57:28.648Z,6.14
2019-03-06T03:58:28.612Z,6.14
2019-03-06T03:59:28.632Z,6.13
2019-03-06T04:00:28.673Z,6.14
2019-03-06T04:01:28.645Z,6.12
2019-03-06T04:02:28.632Z,6.13
2019-03-06T04:03:28.671Z,6.08
2019-03-06T04:04:28.646Z,6.1
2019-03-06T04:05:28.650Z,6.08
2019-03-06T04:06:28.659Z,6.09
2019-03-06T04:07:28.641Z,6.08
2019-03-06T04:08:28.641Z,6.09
2019-03-06T04:09:30.581Z,6.09
2019-03-06T04:10:28.674Z,6.06
2019-03-06T04:11:28.656Z,6.07
2019-03-06T04:12:28.662Z,6.06
2019-03-06T04:13:28.667Z,6.08
2019-03-06T04:14:28.621Z,6.07
2019-03-06T04:15:28.607Z,6.07
2019-03-06T04:16:28.633Z,6.07
2019-03-06T04:17:28.758Z,6.05
2019-03-06T04:18:28.627Z,6.05
2019-03-06T04:19:28.652Z,6.01
2019-03-06T04:20:28.639Z,6.02
2019-03-06T04:21:28.650Z,6.03
2019-03-06T04:22:28.617Z,6.04
2019-03-06T04:23:28.614Z,6.01
2019-03-06T04:24:28.608Z,6.01
2019-03-06T04:25:28.609Z,6.01
2019-03-06T04:26:30.438Z,6.01
2019-03-06T04:27:28.668Z,6
2019-03-06T04:28:28.593Z,5.98
2019-03-06T04:29:28.589Z,5.99
2019-03-06T04:30:28.572Z,5.95
2019-03-06T04:31:28.580Z,5.95
2019-03-06T04:32:28.609Z,5.95
2019-03-06T04:33:28.551Z,5.95
2019-03-06T04:34:28.587Z,5.95
2019-03-06T04:35:28.582Z,5.93
2019-03-06T04:36:28.563Z,5.94
2019-03-06T04:37:28.567Z,5.93
2019-03-06T04:38:28.548Z,5.91
2019-03-06T04:39:28.533Z,5.89
2019-03-06T04:40:28.524Z,5.9
2019-03-06T04:41:28.568Z,5.92
2019-03-06T04:42:28.543Z,5.91
2019-03-06T04:43:29.860Z,5.9
2019-03-06T04:44:28.594Z,5.93
2019-03-06T04:45:28.550Z,5.94
2019-03-06T04:46:28.644Z,5.94
2019-03-06T04:47:28.553Z,5.92
2019-03-06T04:48:28.549Z,5.95
2019-03-06T04:49:28.549Z,5.94
2019-03-06T04:50:28.569Z,5.92
2019-03-06T04:51:28.546Z,5.92
2019-03-06T04:52:29.930Z,5.93
2019-03-06T04:53:28.546Z,5.91
2019-03-06T04:54:28.529Z,5.9
2019-03-06T04:55:28.530Z,5.89
2019-03-06T04:56:28.530Z,5.9
2019-03-06T04:57:28.535Z,5.9
2019-03-06T04:58:28.564Z,5.91
2019-03-06T04:59:28.537Z,5.87
2019-03-06T05:00:28.543Z,5.88
2019-03-06T05:01:28.595Z,5.87
2019-03-06T05:02:28.514Z,5.87
2019-03-06T05:03:28.523Z,5.86
2019-03-06T05:04:28.537Z,5.86
2019-03-06T05:05:28.519Z,5.83
2019-03-06T05:06:29.491Z,5.87
2019-03-06T05:07:28.561Z,5.84
2019-03-06T05:08:28.531Z,5.85
2019-03-06T05:09:29.703Z,5.83
2019-03-06T05:10:28.569Z,5.82
2019-03-06T05:11:28.515Z,5.83
2019-03-06T05:12:28.570Z,5.82
2019-03-06T05:13:28.511Z,5.82
2019-03-06T05:14:28.530Z,5.82
2019-03-06T05:15:28.486Z,5.82
2019-03-06T05:16:28.486Z,5.81
2019-03-06T05:17:28.532Z,5.79
2019-03-06T05:18:30.530Z,5.81
2019-03-06T05:19:28.564Z,5.79
2019-03-06T05:20:28.545Z,5.79
2019-03-06T05:21:28.510Z,5.8
2019-03-06T05:22:28.541Z,5.76
2019-03-06T05:23:28.492Z,5.79
2019-03-06T05:24:28.486Z,5.77
2019-03-06T05:25:28.556Z,5.77
2019-03-06T05:26:28.490Z,5.75
2019-03-06T05:27:28.484Z,5.75
2019-03-06T05:28:28.503Z,5.75
2019-03-06T05:29:28.483Z,5.75
2019-03-06T05:30:28.469Z,5.74
2019-03-06T05:31:28.504Z,5.75
2019-03-06T05:32:28.511Z,5.73
2019-03-06T05:33:29.078Z,5.74
2019-03-06T05:34:28.596Z,5.71
2019-03-06T05:35:29.618Z,5.73
2019-03-06T05:36:28.524Z,5.72
2019-03-06T05:37:28.511Z,5.73
2019-03-06T05:38:28.488Z,5.73
2019-03-06T05:39:28.500Z,5.75
2019-03-06T05:40:28.546Z,5.75
2019-03-06T05:41:28.478Z,5.72
2019-03-06T05:42:28.481Z,5.73
2019-03-06T05:43:28.466Z,5.7
2019-03-06T05:44:29.041Z,5.7
2019-03-06T05:45:28.444Z,5.7
2019-03-06T05:46:28.486Z,5.67
2019-03-06T05:47:28.465Z,5.74
2019-03-06T05:48:28.519Z,5.72
2019-03-06T05:49:28.479Z,5.8
2019-03-06T05:50:28.449Z,5.79
2019-03-06T05:51:28.431Z,5.77
2019-03-06T05:52:28.515Z,5.75
2019-03-06T05:53:29.348Z,5.75
2019-03-06T05:54:28.444Z,5.75
2019-03-06T05:55:28.462Z,5.74
2019-03-06T05:56:28.465Z,5.72
2019-03-06T05:57:28.467Z,5.74
2019-03-06T05:58:28.436Z,5.75
2019-03-06T05:59:28.453Z,5.75
2019-03-06T06:00:28.425Z,5.74
2019-03-06T06:01:28.519Z,5.73
2019-03-06T06:02:29.633Z,5.74
2019-03-06T06:03:28.431Z,5.72
2019-03-06T06:04:28.465Z,5.72
2019-03-06T06:05:28.779Z,5.71
2019-03-06T06:06:28.463Z,5.7
2019-03-06T06:07:28.452Z,5.7
2019-03-06T06:08:28.537Z,5.7
2019-03-06T06:09:28.441Z,5.71
2019-03-06T06:10:28.443Z,5.7
2019-03-06T06:11:30.170Z,5.71
2019-03-06T06:12:28.424Z,5.7
2019-03-06T06:13:28.494Z,5.69
2019-03-06T06:14:28.442Z,5.69
2019-03-06T06:15:28.443Z,5.7
2019-03-06T06:16:28.428Z,5.69
2019-03-06T06:17:28.479Z,5.69
2019-03-06T06:18:28.435Z,5.68
2019-03-06T06:19:28.441Z,5.68
2019-03-06T06:20:30.525Z,5.68
2019-03-06T06:21:28.478Z,5.67
2019-03-06T06:22:28.432Z,5.66
2019-03-06T06:23:28.414Z,5.65
2019-03-06T06:24:28.439Z,5.69
2019-03-06T06:25:28.459Z,5.68
2019-03-06T06:26:28.846Z,5.68
2019-03-06T06:27:28.426Z,5.68
2019-03-06T06:28:28.412Z,5.69
2019-03-06T06:29:28.415Z,5.69
2019-03-06T06:30:28.435Z,5.68
2019-03-06T06:31:28.422Z,5.68
2019-03-06T06:32:28.430Z,5.68
2019-03-06T06:33:28.433Z,5.68
2019-03-06T06:34:28.451Z,5.67
2019-03-06T06:35:28.460Z,5.64
2019-03-06T06:36:28.410Z,5.67
2019-03-06T06:37:29.530Z,5.64
2019-03-06T06:38:28.415Z,5.66
2019-03-06T06:39:28.424Z,5.67
2019-03-06T06:40:28.385Z,5.7
2019-03-06T06:41:28.402Z,5.7
2019-03-06T06:42:28.497Z,5.72
2019-03-06T06:43:28.378Z,5.72
2019-03-06T06:44:28.395Z,5.74
2019-03-06T06:45:28.372Z,5.75
2019-03-06T06:46:30.107Z,5.76
2019-03-06T06:47:28.401Z,5.76
2019-03-06T06:48:28.540Z,5.76
2019-03-06T06:49:28.422Z,5.78
2019-03-06T06:50:28.389Z,5.77
2019-03-06T06:51:28.378Z,5.8
2019-03-06T06:52:28.371Z,5.8
2019-03-06T06:53:28.377Z,5.81
2019-03-06T06:54:28.382Z,5.82
2019-03-06T06:55:30.309Z,5.82
2019-03-06T06:56:28.519Z,5.84
2019-03-06T06:57:28.368Z,5.87
2019-03-06T06:58:32.064Z,5.88
2019-03-06T06:59:28.587Z,5.89
2019-03-06T07:00:28.339Z,5.94
2019-03-06T07:01:28.431Z,5.97
2019-03-06T07:02:28.377Z,5.95
2019-03-06T07:03:28.399Z,6
2019-03-06T07:04:29.577Z,6.01
2019-03-06T07:05:28.349Z,6.02
2019-03-06T07:06:28.354Z,6.02
2019-03-06T07:07:28.465Z,6.07
2019-03-06T07:08:28.336Z,6.07
2019-03-06T07:09:28.344Z,6.1
2019-03-06T07:10:28.698Z,6.13
2019-03-06T07:11:28.339Z,6.14
2019-03-06T07:12:28.362Z,6.18
2019-03-06T07:13:29.579Z,6.21
2019-03-06T07:14:28.316Z,6.25
2019-03-06T07:15:28.323Z,6.25
2019-03-06T07:16:28.370Z,6.27
2019-03-06T07:17:28.331Z,6.28
2019-03-06T07:18:28.335Z,6.32
2019-03-06T07:19:28.325Z,6.33
2019-03-06T07:20:28.315Z,6.35
2019-03-06T07:21:28.379Z,6.38
2019-03-06T07:22:29.144Z,6.38
2019-03-06T07:23:28.334Z,6.4
2019-03-06T07:24:28.320Z,6.44
2019-03-06T07:25:28.327Z,6.46
2019-03-06T07:26:28.314Z,6.5
2019-03-06T07:27:28.351Z,6.52
2019-03-06T07:28:28.350Z,6.52
2019-03-06T07:29:28.355Z,6.54
2019-03-06T07:30:28.313Z,6.59
2019-03-06T07:31:28.423Z,6.59
2019-03-06T07:32:28.657Z,6.6
2019-03-06T07:33:28.312Z,6.64
2019-03-06T07:34:28.309Z,6.65
2019-03-06T07:35:28.306Z,6.69
2019-03-06T07:36:28.284Z,6.68
2019-03-06T07:37:29.266Z,6.71
2019-03-06T07:38:28.291Z,6.74
2019-03-06T07:39:28.310Z,6.76
2019-03-06T07:40:28.285Z,6.8
2019-03-06T07:41:28.303Z,6.82
2019-03-06T07:42:28.301Z,6.85
2019-03-06T07:43:28.273Z,6.88
2019-03-06T07:44:30.984Z,6.9
2019-03-06T07:45:28.275Z,6.92
2019-03-06T07:46:28.285Z,6.94
2019-03-06T07:47:28.288Z,6.97
2019-03-06T07:48:28.319Z,7
2019-03-06T07:49:28.285Z,7.02
2019-03-06T07:50:30.169Z,7.05
2019-03-06T07:51:28.274Z,7.06
2019-03-06T07:52:28.298Z,7.07
2019-03-06T07:53:28.258Z,7.09
2019-03-06T07:54:28.476Z,7.11
2019-03-06T07:55:28.275Z,7.13
2019-03-06T07:56:28.268Z,7.13
2019-03-06T07:57:28.298Z,7.14
2019-03-06T07:58:28.281Z,7.17
2019-03-06T07:59:30.161Z,7.15
2019-03-06T08:00:28.266Z,7.17
2019-03-06T08:01:28.261Z,7.15
2019-03-06T08:02:28.288Z,7.19
2019-03-06T08:03:28.267Z,7.19
2019-03-06T08:04:28.274Z,7.2
2019-03-06T08:05:28.245Z,7.24
2019-03-06T08:06:28.270Z,7.22
2019-03-06T08:07:28.305Z,7.25
2019-03-06T08:08:29.861Z,7.26
2019-03-06T08:09:28.265Z,7.28
2019-03-06T08:10:28.286Z,7.31
2019-03-06T08:11:28.272Z,7.32
2019-03-06T08:12:28.233Z,7.36
2019-03-06T08:13:28.234Z,7.38
2019-03-06T08:14:28.240Z,7.4
2019-03-06T08:15:28.258Z,7.46
2019-03-06T08:16:28.428Z,7.47
2019-03-06T08:17:30.293Z,7.5
2019-03-06T08:18:28.250Z,7.55
2019-03-06T08:19:28.271Z,7.58
2019-03-06T08:20:28.245Z,7.63
2019-03-06T08:21:28.233Z,7.64
2019-03-06T08:22:28.253Z,7.65
2019-03-06T08:23:28.248Z,7.69
2019-03-06T08:24:28.258Z,7.73
2019-03-06T08:25:28.237Z,7.76
2019-03-06T08:26:29.125Z,7.83
2019-03-06T08:27:28.240Z,7.85
2019-03-06T08:28:28.250Z,7.88
2019-03-06T08:29:28.247Z,7.9
2019-03-06T08:30:28.226Z,7.95
2019-03-06T08:31:28.258Z,8.01
2019-03-06T08:32:28.265Z,8.03
2019-03-06T08:33:28.214Z,8.09
2019-03-06T08:34:28.219Z,8.12
2019-03-06T08:35:29.690Z,8.14
2019-03-06T08:36:28.222Z,8.2
2019-03-06T08:37:28.236Z,8.26
2019-03-06T08:38:29.235Z,8.32
2019-03-06T08:39:28.266Z,8.37
2019-03-06T08:40:28.233Z,8.38
2019-03-06T08:41:28.206Z,8.44
2019-03-06T08:42:28.254Z,8.47
2019-03-06T08:43:28.211Z,8.53
2019-03-06T08:44:30.567Z,8.57
2019-03-06T08:45:28.335Z,8.63
2019-03-06T08:46:28.215Z,8.71
2019-03-06T08:47:28.220Z,8.74
2019-03-06T08:48:28.207Z,8.82
2019-03-06T08:49:28.206Z,8.85
2019-03-06T08:50:28.311Z,8.89
2019-03-06T08:51:28.206Z,8.94
2019-03-06T08:52:28.219Z,8.98
2019-03-06T08:53:30.217Z,9.01
2019-03-06T08:54:28.201Z,9.02
2019-03-06T08:55:29.694Z,9.04
2019-03-06T08:56:28.193Z,9.09
2019-03-06T08:57:28.197Z,9.15
2019-03-06T08:58:28.176Z,9.16
2019-03-06T08:59:28.727Z,9.2
2019-03-06T09:00:30.726Z,9.22
2019-03-06T09:01:28.267Z,9.27
2019-03-06T09:02:30.585Z,9.29
2019-03-06T09:03:28.219Z,9.32
2019-03-06T09:04:28.159Z,9.33
2019-03-06T09:05:28.182Z,9.35
2019-03-06T09:06:28.237Z,9.35
2019-03-06T09:07:28.221Z,9.34
2019-03-06T09:08:28.164Z,9.34
2019-03-06T09:09:28.192Z,9.41
2019-03-06T09:10:28.173Z,9.36
2019-03-06T09:11:29.737Z,9.34
2019-03-06T09:12:28.191Z,9.34
2019-03-06T09:13:28.169Z,9.36
2019-03-06T09:14:28.140Z,9.38
2019-03-06T09:15:28.176Z,9.38
2019-03-06T09:16:28.151Z,9.37
2019-03-06T09:17:28.156Z,9.35
2019-03-06T09:18:28.154Z,9.4
2019-03-06T09:19:28.180Z,9.4
2019-03-06T09:20:41.323Z,9.4
2019-03-06T09:21:28.153Z,9.4
2019-03-06T09:22:28.332Z,9.41
2019-03-06T09:23:28.166Z,9.41
2019-03-06T09:24:28.172Z,9.45
2019-03-06T09:25:28.153Z,9.44
2019-03-06T09:26:28.142Z,9.45
2019-03-06T09:27:28.172Z,9.45
2019-03-06T09:28:28.169Z,9.45
2019-03-06T09:29:29.843Z,9.45
2019-03-06T09:30:28.128Z,9.43
2019-03-06T09:31:28.165Z,9.45
2019-03-06T09:32:28.175Z,9.48
2019-03-06T09:33:28.143Z,9.49
2019-03-06T09:34:28.607Z,9.5
2019-03-06T09:35:28.146Z,9.52
2019-03-06T09:36:28.126Z,9.54
2019-03-06T09:37:28.145Z,9.56
2019-03-06T09:38:30.120Z,9.54
2019-03-06T09:39:28.116Z,9.57
2019-03-06T09:40:28.123Z,9.6
2019-03-06T09:41:28.129Z,9.65
2019-03-06T09:42:28.160Z,9.69
2019-03-06T09:43:28.162Z,9.71
2019-03-06T09:44:28.286Z,9.75
2019-03-06T09:45:28.136Z,9.75
2019-03-06T09:46:28.116Z,9.79
2019-03-06T09:47:28.102Z,9.83
2019-03-06T09:48:28.122Z,9.85
2019-03-06T09:49:28.127Z,9.88
2019-03-06T09:50:28.126Z,9.9
2019-03-06T09:51:28.132Z,9.94
2019-03-06T09:52:28.306Z,9.96
2019-03-06T09:53:28.120Z,10.02
2019-03-06T09:54:28.127Z,10.09
2019-03-06T09:55:28.711Z,10.13
2019-03-06T09:56:28.086Z,10.17
2019-03-06T09:57:28.189Z,10.27
2019-03-06T09:58:28.200Z,10.27
2019-03-06T09:59:28.110Z,10.34
2019-03-06T10:00:28.080Z,10.39
2019-03-06T10:01:28.121Z,10.48
2019-03-06T10:02:28.122Z,10.5
2019-03-06T10:03:28.130Z,10.52
2019-03-06T10:04:29.673Z,10.55
2019-03-06T10:05:28.087Z,10.6
2019-03-06T10:06:28.401Z,10.61
2019-03-06T10:07:28.103Z,10.68
2019-03-06T10:08:28.113Z,10.71
2019-03-06T10:09:28.099Z,10.72
2019-03-06T10:10:28.114Z,10.83
2019-03-06T10:11:28.094Z,10.89
2019-03-06T10:12:28.070Z,10.94
2019-03-06T10:13:30.037Z,11
2019-03-06T10:14:28.155Z,11.01
2019-03-06T10:15:28.070Z,11.07
2019-03-06T10:16:28.100Z,11.19
2019-03-06T10:17:30.638Z,11.29
2019-03-06T10:18:28.161Z,11.34
2019-03-06T10:19:29.918Z,11.37
2019-03-06T10:20:28.104Z,11.42
2019-03-06T10:21:28.122Z,11.43
2019-03-06T10:22:28.097Z,11.48
2019-03-06T10:23:28.140Z,11.52
2019-03-06T10:24:28.147Z,11.58
2019-03-06T10:25:34.212Z,11.6
2019-03-06T10:26:29.321Z,11.7
2019-03-06T10:27:28.146Z,11.66
2019-03-06T10:28:28.454Z,11.69
2019-03-06T10:29:28.209Z,11.75
2019-03-06T10:30:28.849Z,11.78
2019-03-06T10:31:28.175Z,11.83
2019-03-06T10:32:28.148Z,11.85
2019-03-06T10:33:28.153Z,11.91
2019-03-06T10:34:28.163Z,11.92
2019-03-06T10:35:29.669Z,12.03
2019-03-06T10:36:28.403Z,12.06
2019-03-06T10:37:28.351Z,12.1
2019-03-06T10:38:28.241Z,12.17
2019-03-06T10:39:28.156Z,12.15
2019-03-06T10:40:29.244Z,12.15
2019-03-06T10:41:28.244Z,12.24
2019-03-06T10:42:28.161Z,12.27
2019-03-06T10:43:28.148Z,12.36
2019-03-06T10:44:30.437Z,12.38
2019-03-06T10:45:29.986Z,12.43
2019-03-06T10:46:28.174Z,12.42
2019-03-06T10:47:28.277Z,12.45
2019-03-06T10:48:28.138Z,12.49
2019-03-06T10:49:28.266Z,12.54
2019-03-06T10:50:31.993Z,12.62
2019-03-06T10:51:28.242Z,12.66
2019-03-06T10:52:28.266Z,12.65
2019-03-06T10:53:28.143Z,12.74
2019-03-06T10:54:28.161Z,12.8
2019-03-06T10:55:29.711Z,12.86
2019-03-06T10:56:28.196Z,12.89
2019-03-06T10:57:28.185Z,12.9
2019-03-06T10:58:28.126Z,12.97
2019-03-06T10:59:28.212Z,13.01
2019-03-06T11:00:30.974Z,13.08
2019-03-06T11:01:28.262Z,13.08
2019-03-06T11:02:28.134Z,13.13
2019-03-06T11:03:28.107Z,13.13
2019-03-06T11:04:28.182Z,13.16
2019-03-06T11:05:28.232Z,13.2
2019-03-06T11:06:28.137Z,13.22
2019-03-06T11:07:28.241Z,13.31
2019-03-06T11:08:28.115Z,13.36
2019-03-06T11:09:28.197Z,13.42
2019-03-06T11:10:29.701Z,13.44
2019-03-06T11:11:28.273Z,13.43
2019-03-06T11:12:28.257Z,13.45
2019-03-06T11:13:28.184Z,13.45
2019-03-06T11:14:28.244Z,13.46
2019-03-06T11:15:28.138Z,13.51
2019-03-06T11:16:41.847Z,13.5
2019-03-06T11:17:29.930Z,13.51
2019-03-06T11:18:28.175Z,13.52
2019-03-06T11:19:28.085Z,13.53
2019-03-06T11:20:28.056Z,13.61
2019-03-06T11:21:28.052Z,13.66
2019-03-06T11:22:28.056Z,13.66
2019-03-06T11:23:28.084Z,13.75
2019-03-06T11:24:28.096Z,13.76
2019-03-06T11:25:28.098Z,13.81
2019-03-06T11:26:28.112Z,13.91
2019-03-06T11:27:28.321Z,14
2019-03-06T11:28:28.190Z,14.08
2019-03-06T11:29:28.092Z,14.16
2019-03-06T11:30:28.034Z,14.16
2019-03-06T11:31:28.112Z,14.21
2019-03-06T11:32:28.372Z,14.18
2019-03-06T11:33:29.650Z,14.13
2019-03-06T11:34:28.089Z,14.07
2019-03-06T11:35:28.041Z,14.1
2019-03-06T11:36:28.013Z,14.06
2019-03-06T11:37:28.082Z,14.09
2019-03-06T11:38:28.050Z,14.14
2019-03-06T11:39:28.083Z,14.2
2019-03-06T11:40:28.061Z,14.2
2019-03-06T11:41:29.500Z,14.27
2019-03-06T11:42:28.025Z,14.29
2019-03-06T11:43:28.069Z,14.31
2019-03-06T11:44:28.056Z,14.33
2019-03-06T11:45:28.035Z,14.31
2019-03-06T11:46:28.012Z,14.35
2019-03-06T11:47:28.031Z,14.4
2019-03-06T11:48:28.010Z,14.39
2019-03-06T11:49:28.792Z,14.44
2019-03-06T11:50:28.057Z,14.46
2019-03-06T11:51:28.123Z,14.54
2019-03-06T11:52:28.004Z,14.51
2019-03-06T11:53:28.000Z,14.55
2019-03-06T11:54:28.213Z,14.51
2019-03-06T11:55:28.034Z,14.48
2019-03-06T11:56:28.032Z,14.51
2019-03-06T11:57:28.039Z,14.52
2019-03-06T11:58:27.999Z,14.49
2019-03-06T11:59:28.020Z,14.5
2019-03-06T12:00:28.061Z,14.49
2019-03-06T12:01:28.015Z,14.51
2019-03-06T12:02:28.020Z,14.51
2019-03-06T12:03:28.031Z,14.51
2019-03-06T12:04:29.449Z,14.55
2019-03-06T12:05:28.044Z,14.55
2019-03-06T12:06:28.021Z,14.49
2019-03-06T12:07:28.044Z,14.48
2019-03-06T12:08:28.024Z,14.5
2019-03-06T12:09:28.092Z,14.57
2019-03-06T12:10:28.019Z,14.59
2019-03-06T12:11:28.030Z,14.57
2019-03-06T12:12:29.906Z,14.64
2019-03-06T12:13:28.073Z,14.67
2019-03-06T12:14:27.985Z,14.68
2019-03-06T12:15:28.150Z,14.65
2019-03-06T12:16:28.956Z,14.67
2019-03-06T12:17:28.029Z,14.69
2019-03-06T12:18:28.208Z,14.67
2019-03-06T12:19:28.389Z,14.66
2019-03-06T12:20:28.002Z,14.71
2019-03-06T12:21:28.021Z,14.7
2019-03-06T12:22:28.057Z,14.7
2019-03-06T12:23:27.977Z,14.7
2019-03-06T12:24:27.954Z,14.7
2019-03-06T12:25:27.951Z,14.72
2019-03-06T12:26:27.999Z,14.7
2019-03-06T12:27:28.911Z,14.7
2019-03-06T12:28:27.971Z,14.73
2019-03-06T12:29:28.278Z,14.77
2019-03-06T12:30:27.950Z,14.81
2019-03-06T12:31:27.943Z,14.88
2019-03-06T12:32:27.938Z,14.84
2019-03-06T12:33:27.958Z,14.86
2019-03-06T12:34:28.192Z,14.93
2019-03-06T12:35:27.931Z,14.95
2019-03-06T12:36:27.924Z,15.07
2019-03-06T12:37:28.211Z,15.13
2019-03-06T12:38:28.264Z,15.14
2019-03-06T12:39:27.951Z,15.14
2019-03-06T12:40:27.906Z,15.09
2019-03-06T12:41:27.917Z,15.09
2019-03-06T12:42:27.920Z,15.06
2019-03-06T12:43:27.919Z,15.02
2019-03-06T12:44:29.823Z,15
2019-03-06T12:45:27.942Z,15
2019-03-06T12:46:27.938Z,15
2019-03-06T12:47:27.923Z,14.97
2019-03-06T12:48:27.900Z,14.94
2019-03-06T12:49:27.942Z,14.96
2019-03-06T12:50:27.908Z,14.99
2019-03-06T12:51:27.979Z,14.98
2019-03-06T12:52:31.035Z,14.96
2019-03-06T12:53:27.898Z,14.97
2019-03-06T12:54:27.905Z,14.98
2019-03-06T12:55:27.947Z,14.98
2019-03-06T12:56:27.959Z,15
2019-03-06T12:57:27.925Z,15
2019-03-06T12:58:27.895Z,15
2019-03-06T12:59:28.133Z,15.01
2019-03-06T13:00:28.667Z,15.02
2019-03-06T13:01:27.928Z,14.99
2019-03-06T13:02:27.881Z,15.02
2019-03-06T13:03:27.892Z,15.01
2019-03-06T13:04:27.906Z,15.03
2019-03-06T13:05:27.944Z,15.03
2019-03-06T13:06:27.969Z,14.99
2019-03-06T13:07:28.008Z,14.96
2019-03-06T13:08:29.676Z,14.94
2019-03-06T13:09:27.957Z,14.93
2019-03-06T13:10:27.930Z,14.92
2019-03-06T13:11:27.909Z,14.9
2019-03-06T13:12:29.637Z,14.9
2019-03-06T13:13:36.267Z,14.88
2019-03-06T13:14:30.885Z,14.89
2019-03-06T13:15:27.979Z,14.9